Time,TemperatureF,DewpointF,PressureIn,WindDirection,WindDirectionDegrees,WindSpeedMPH,WindSpeedGustMPH,Humidity,HourlyPrecipIn,Conditions,Clouds,dailyrainin,SoftwareType,DateUTC
2013-04-23 00:01:00,41.7,24.9,30.42,ENE,59,3.5,3.5,51,0.00,,,0.00,WeatherDisplay:10.37,2013-04-23 04:01:00,
2013-04-23 00:06:00,41.9,25.1,30.42,NE,34,5.8,5.8,51,0.00,,,0.00,WeatherDisplay:10.37,2013-04-23 04:06:00,
2013-04-23 00:11:00,41.9,25.1,30.42,NE,54,5.8,5.8,51,0.00,,,0.00,WeatherDisplay:10.37,2013-04-23 04:11:00,
2013-04-23 00:16:00,41.9,25.5,30.42,East,81,3.5,3.5,52,0.00,,,0.00,WeatherDisplay:10.37,2013-04-23 04:16:00,
2013-04-23 00:21:00,42.1,25.7,30.42,ENE,58,6.3,6.3,52,0.00,,,0.00,WeatherDisplay:10.37,2013-04-23 04:21:00,
2013-04-23 00:26:00,42.1,26.2,30.42,NNE,20,5.8,5.8,53,0.00,,,0.00,WeatherDisplay:10.37,2013-04-23 04:26:00,
2013-04-23 00:31:00,42.1,26.2,30.42,NNE,31,5.8,5.8,53,0.00,,,0.00,WeatherDisplay:10.37,2013-04-23 04:31:00,
2013-04-23 00:36:00,42.1,26.2,30.42,NNE,27,2.3,0.0,53,0.00,,,0.00,WeatherDisplay:10.37,2013-04-23 04:36:00,
2013-04-23 00:41:00,42.1,26.6,30.42,NNE,31,5.8,5.8,54,0.00,,,0.00,WeatherDisplay:10.37,2013-04-23 04:41:00,
2013-04-23 00:46:00,42.3,26.8,30.42,East,89,5.8,5.8,54,0.00,,,0.00,WeatherDisplay:10.37,2013-04-23 04:46:00,
2013-04-23 00:51:00,42.3,27.2,30.42,NE,40,5.8,5.8,55,0.00,,,0.00,WeatherDisplay:10.37,2013-04-23 04:51:00,
2013-04-23 00:57:00,42.3,27.7,30.39,ENE,77,10.4,10.4,56,0.00,,,0.00,WeatherDisplay:10.37,2013-04-23 04:57:00,
2013-04-23 01:02:00,42.4,27.8,30.39,North,357,3.5,3.5,56,0.00,,,0.00,WeatherDisplay:10.37,2013-04-23 05:02:00,
2013-04-23 01:07:00,42.4,27.8,30.39,ESE,114,8.1,8.1,56,0.00,,,0.00,WeatherDisplay:10.37,2013-04-23 05:07:00,
2013-04-23 01:12:00,42.4,27.8,30.39,NE,51,8.1,8.1,56,0.00,,,0.00,WeatherDisplay:10.37,2013-04-23 05:12:00,
2013-04-23 01:17:00,42.4,27.8,30.39,NNE,27,5.8,5.8,56,0.00,,,0.00,WeatherDisplay:10.37,2013-04-23 05:17:00,
2013-04-23 01:22:00,42.6,28.0,30.39,NE,41,9.2,9.2,56,0.00,,,0.00,WeatherDisplay:10.37,2013-04-23 05:22:00,
2013-04-23 01:27:00,42.6,28.0,30.39,NNE,19,8.1,8.1,56,0.00,,,0.00,WeatherDisplay:10.37,2013-04-23 05:27:00,
2013-04-23 01:32:00,42.6,28.0,30.39,ENE,63,4.6,4.6,56,0.00,,,0.00,WeatherDisplay:10.37,2013-04-23 05:32:00,
2013-04-23 01:37:00,42.8,28.2,30.39,NNE,15,5.8,5.8,56,0.00,,,0.00,WeatherDisplay:10.37,2013-04-23 05:37:00,
2013-04-23 01:42:00,42.8,28.2,30.39,NE,47,4.6,4.6,56,0.00,,,0.00,WeatherDisplay:10.37,2013-04-23 05:42:00,
2013-04-23 01:47:00,42.8,28.2,30.39,NE,37,5.8,5.8,56,0.00,,,0.00,WeatherDisplay:10.37,2013-04-23 05:47:00,
2013-04-23 01:52:00,42.8,28.2,30.39,NNE,26,3.5,3.5,56,0.00,,,0.00,WeatherDisplay:10.37,2013-04-23 05:52:00,
2013-04-23 01:57:00,42.8,28.2,30.39,NE,39,5.8,5.8,56,0.00,,,0.00,WeatherDisplay:10.37,2013-04-23 05:57:00,
2013-04-23 02:02:00,42.8,28.6,30.39,North,9,5.8,5.8,57,0.00,,,0.00,WeatherDisplay:10.37,2013-04-23 06:02:00,
2013-04-23 02:07:00,42.8,28.6,30.39,NE,56,3.5,0.0,57,0.00,,,0.00,WeatherDisplay:10.37,2013-04-23 06:07:00,
2013-04-23 02:12:00,42.8,28.6,30.36,NE,38,5.8,5.8,57,0.00,,,0.00,WeatherDisplay:10.37,2013-04-23 06:12:00,
2013-04-23 02:17:00,42.8,29.0,30.36,NNE,22,3.5,3.5,58,0.00,,,0.00,WeatherDisplay:10.37,2013-04-23 06:17:00,
2013-04-23 02:22:00,42.8,29.0,30.36,NE,46,5.8,5.8,58,0.00,,,0.00,WeatherDisplay:10.37,2013-04-23 06:22:00,
2013-04-23 02:27:00,42.8,29.5,30.36,NE,55,5.8,5.8,59,0.00,,,0.00,WeatherDisplay:10.37,2013-04-23 06:27:00,
2013-04-23 02:32:00,42.8,29.9,30.36,NE,34,8.1,8.1,60,0.00,,,0.00,WeatherDisplay:10.37,2013-04-23 06:32:00,
2013-04-23 02:37:00,43.0,30.4,30.36,NNE,20,5.8,5.8,61,0.00,,,0.00,WeatherDisplay:10.37,2013-04-23 06:37:00,
2013-04-23 02:42:00,43.0,30.8,30.36,ENE,69,10.4,10.4,62,0.00,,,0.00,WeatherDisplay:10.37,2013-04-23 06:42:00,
2013-04-23 02:47:00,43.0,31.6,30.36,NE,36,5.8,5.8,64,0.00,,,0.00,WeatherDisplay:10.37,2013-04-23 06:47:00,
2013-04-23 02:52:00,43.0,32.4,30.36,ENE,74,8.1,8.1,66,0.00,,,0.00,WeatherDisplay:10.37,2013-04-23 06:52:00,
2013-04-23 02:57:00,42.8,33.0,30.36,NNE,32,6.3,6.3,68,0.00,,,0.00,WeatherDisplay:10.37,2013-04-23 06:57:00,
2013-04-23 03:02:00,42.8,33.3,30.36,NE,37,5.8,5.8,69,0.00,,,0.00,WeatherDisplay:10.37,2013-04-23 07:02:00,
2013-04-23 03:07:00,42.8,33.7,30.36,NNE,27,6.9,6.9,70,0.00,,,0.00,WeatherDisplay:10.37,2013-04-23 07:07:00,
2013-04-23 03:12:00,42.6,34.6,30.36,ENE,68,5.8,5.8,73,0.00,,,0.00,WeatherDisplay:10.37,2013-04-23 07:12:00,
2013-04-23 03:17:00,42.4,35.1,30.36,NE,38,3.5,3.5,75,0.00,,,0.00,WeatherDisplay:10.37,2013-04-23 07:17:00,
2013-04-23 03:22:00,42.4,35.4,30.33,NNE,28,3.5,3.6,76,0.00,,,0.00,WeatherDisplay:10.37,2013-04-23 07:22:00,
2013-04-23 03:27:00,42.3,35.6,30.33,NNW,345,3.5,3.6,77,0.00,,,0.00,WeatherDisplay:10.37,2013-04-23 07:27:00,
2013-04-23 03:32:00,42.3,35.9,30.33,NNE,29,0.0,0.0,78,0.00,,,0.00,WeatherDisplay:10.37,2013-04-23 07:32:00,
2013-04-23 03:37:00,42.3,36.5,30.33,NNE,28,3.5,0.0,80,0.00,,,0.00,WeatherDisplay:10.37,2013-04-23 07:37:00,
2013-04-23 03:42:00,42.4,37.3,30.33,NE,51,8.1,8.1,82,0.00,,,0.00,WeatherDisplay:10.37,2013-04-23 07:42:00,
2013-04-23 03:47:00,42.3,37.5,30.33,NNE,24,6.3,6.3,83,0.00,,,0.00,WeatherDisplay:10.37,2013-04-23 07:47:00,
2013-04-23 03:52:00,42.3,37.8,30.33,NNE,29,5.8,5.8,84,0.00,,,0.00,WeatherDisplay:10.37,2013-04-23 07:52:00,
2013-04-23 03:57:00,42.3,38.1,30.33,ENE,64,5.8,5.8,85,0.00,,,0.00,WeatherDisplay:10.37,2013-04-23 07:57:00,
2013-04-23 04:02:00,42.4,38.5,30.33,NNE,33,4.6,4.6,86,0.00,,,0.00,WeatherDisplay:10.37,2013-04-23 08:02:00,
2013-04-23 04:07:00,42.4,38.5,30.33,NE,34,8.1,8.1,86,0.00,,,0.00,WeatherDisplay:10.37,2013-04-23 08:07:00,
2013-04-23 04:12:00,42.4,38.8,30.33,NE,45,4.6,4.6,87,0.00,,,0.00,WeatherDisplay:10.37,2013-04-23 08:12:00,
2013-04-23 04:17:00,42.4,38.8,30.33,NNE,19,5.8,5.8,87,0.00,,,0.00,WeatherDisplay:10.37,2013-04-23 08:17:00,
2013-04-23 04:22:00,42.4,39.1,30.33,North,2,3.5,0.0,88,0.00,,,0.00,WeatherDisplay:10.37,2013-04-23 08:22:00,
2013-04-23 04:27:00,42.4,39.4,30.33,NNE,33,3.5,0.0,89,0.00,,,0.00,WeatherDisplay:10.37,2013-04-23 08:27:00,
2013-04-23 04:32:00,42.4,39.4,30.33,NNW,345,5.8,5.8,89,0.00,,,0.00,WeatherDisplay:10.37,2013-04-23 08:32:00,
2013-04-23 04:37:00,42.4,39.7,30.33,North,6,3.5,0.0,90,0.00,,,0.00,WeatherDisplay:10.37,2013-04-23 08:37:00,
2013-04-23 04:42:00,42.4,39.7,30.33,NNE,33,5.8,5.8,90,0.00,,,0.00,WeatherDisplay:10.37,2013-04-23 08:42:00,
2013-04-23 04:47:00,42.4,40.0,30.33,NE,46,8.1,8.1,91,0.00,,,0.00,WeatherDisplay:10.37,2013-04-23 08:47:00,
2013-04-23 04:52:00,42.4,40.0,30.33,NNE,13,8.1,8.1,91,0.00,,,0.00,WeatherDisplay:10.37,2013-04-23 08:52:00,
2013-04-23 04:57:00,42.4,40.3,30.33,NNE,32,5.8,5.8,92,0.00,,,0.00,WeatherDisplay:10.37,2013-04-23 08:57:00,
2013-04-23 05:02:00,42.4,40.3,30.33,NNE,20,5.8,5.8,92,0.00,,,0.00,WeatherDisplay:10.37,2013-04-23 09:02:00,
2013-04-23 05:07:00,42.6,40.7,30.33,NNE,25,4.6,4.6,93,0.00,,,0.00,WeatherDisplay:10.37,2013-04-23 09:07:00,
2013-04-23 05:12:00,42.6,40.7,30.33,North,6,6.9,6.9,93,0.00,,,0.00,WeatherDisplay:10.37,2013-04-23 09:12:00,
2013-04-23 05:17:00,42.6,40.7,30.33,North,1,3.5,3.5,93,0.00,,,0.00,WeatherDisplay:10.37,2013-04-23 09:17:00,
2013-04-23 05:22:00,42.8,40.9,30.33,NNE,14,5.8,5.8,93,0.00,,,0.00,WeatherDisplay:10.37,2013-04-23 09:22:00,
2013-04-23 05:27:00,42.8,40.9,30.33,NE,37,5.8,5.8,93,0.00,,,0.00,WeatherDisplay:10.37,2013-04-23 09:27:00,
2013-04-23 05:32:00,42.8,41.2,30.33,NNE,19,6.9,6.9,94,0.00,,,0.00,WeatherDisplay:10.37,2013-04-23 09:32:00,
2013-04-23 05:37:00,42.8,41.2,30.33,NE,52,3.5,0.0,94,0.00,,,0.00,WeatherDisplay:10.37,2013-04-23 09:37:00,
2013-04-23 05:42:00,43.0,41.4,30.33,NE,49,4.6,4.6,94,0.00,,,0.00,WeatherDisplay:10.37,2013-04-23 09:42:00,
2013-04-23 05:47:00,43.0,41.6,30.33,NW,326,5.8,5.8,95,0.00,,,0.00,WeatherDisplay:10.37,2013-04-23 09:47:00,
2013-04-23 05:52:00,43.2,41.8,30.30,NNE,19,8.1,8.1,95,0.00,,,0.00,WeatherDisplay:10.37,2013-04-23 09:52:00,
2013-04-23 05:57:00,43.2,41.8,30.30,NNE,29,5.8,5.8,95,0.00,,,0.00,WeatherDisplay:10.37,2013-04-23 09:57:00,
2013-04-23 06:02:00,43.0,41.6,30.30,ENE,65,5.8,5.8,95,0.00,,,0.00,WeatherDisplay:10.37,2013-04-23 10:02:00,
2013-04-23 06:07:00,43.2,41.8,30.30,NE,55,5.8,0.0,95,0.00,,,0.00,WeatherDisplay:10.37,2013-04-23 10:07:00,
2013-04-23 06:12:00,43.2,42.1,30.30,NE,56,6.9,6.9,96,0.00,,,0.00,WeatherDisplay:10.37,2013-04-23 10:12:00,
2013-04-23 06:17:00,43.2,42.1,30.30,North,10,4.6,4.6,96,0.00,,,0.00,WeatherDisplay:10.37,2013-04-23 10:17:00,
2013-04-23 06:22:00,43.3,42.3,30.30,North,6,5.8,5.8,96,0.00,,,0.00,WeatherDisplay:10.37,2013-04-23 10:22:00,
2013-04-23 06:28:00,43.3,42.3,30.30,NE,38,5.8,5.8,96,0.00,,,0.00,WeatherDisplay:10.37,2013-04-23 10:28:00,
2013-04-23 06:33:00,43.3,42.3,30.30,NE,42,4.0,0.0,96,0.00,,,0.00,WeatherDisplay:10.37,2013-04-23 10:33:00,
2013-04-23 06:38:00,43.5,42.5,30.30,NE,38,5.8,5.8,96,0.00,,,0.00,WeatherDisplay:10.37,2013-04-23 10:38:00,
2013-04-23 06:43:00,43.5,42.5,30.30,NNE,33,5.8,5.8,96,0.00,,,0.00,WeatherDisplay:10.37,2013-04-23 10:43:00,
2013-04-23 06:48:00,43.7,42.6,30.30,NNE,28,5.8,5.8,96,0.00,,,0.00,WeatherDisplay:10.37,2013-04-23 10:48:00,
2013-04-23 06:53:00,43.7,42.6,30.30,NNE,29,5.8,5.8,96,0.00,,,0.00,WeatherDisplay:10.37,2013-04-23 10:53:00,
2013-04-23 06:58:00,43.7,42.6,30.30,East,88,10.4,10.4,96,0.00,,,0.00,WeatherDisplay:10.37,2013-04-23 10:58:00,
2013-04-23 07:03:00,43.9,42.8,30.30,NNE,23,5.8,5.8,96,0.00,,,0.00,WeatherDisplay:10.37,2013-04-23 11:03:00,
2013-04-23 07:08:00,44.1,43.0,30.30,NNE,16,3.5,4.5,96,0.04,RA,,0.04,WeatherDisplay:10.37,2013-04-23 11:08:00,
2013-04-23 07:13:00,44.1,42.7,30.30,East,94,5.8,5.8,95,0.04,RA,,0.04,WeatherDisplay:10.37,2013-04-23 11:13:00,
2013-04-23 07:18:00,44.1,42.7,30.30,NNE,23,8.1,8.1,95,0.04,,,0.04,WeatherDisplay:10.37,2013-04-23 11:18:00,
2013-04-23 07:23:00,44.1,42.7,30.30,NE,52,3.5,3.5,95,0.04,,,0.04,WeatherDisplay:10.37,2013-04-23 11:23:00,
2013-04-23 07:28:00,44.1,42.7,30.30,NE,46,4.0,4.0,95,0.04,,,0.04,WeatherDisplay:10.37,2013-04-23 11:28:00,
2013-04-23 07:33:00,44.2,42.9,30.30,NNE,31,5.8,5.8,95,0.04,,,0.04,WeatherDisplay:10.37,2013-04-23 11:33:00,
2013-04-23 07:38:00,44.2,42.9,30.30,NE,40,5.8,5.8,95,0.04,,,0.04,WeatherDisplay:10.37,2013-04-23 11:38:00,
2013-04-23 07:43:00,44.2,42.9,30.30,NE,45,8.1,8.1,95,0.04,,,0.04,WeatherDisplay:10.37,2013-04-23 11:43:00,
2013-04-23 07:48:00,44.2,42.9,30.30,NE,35,5.8,5.8,95,0.04,,,0.04,WeatherDisplay:10.37,2013-04-23 11:48:00,
2013-04-23 07:53:00,44.4,43.1,30.30,NNE,23,8.3,8.3,95,0.04,,,0.04,WeatherDisplay:10.37,2013-04-23 11:53:00,
2013-04-23 07:58:00,44.6,43.0,30.30,NE,52,8.1,8.1,94,0.04,,,0.04,WeatherDisplay:10.37,2013-04-23 11:58:00,
2013-04-23 08:03:00,44.6,43.0,30.30,North,8,5.8,5.8,94,0.04,,,0.04,WeatherDisplay:10.37,2013-04-23 12:03:00,
2013-04-23 08:08:00,44.6,43.0,30.30,NE,47,3.5,3.5,94,0.00,,,0.04,WeatherDisplay:10.37,2013-04-23 12:08:00,
2013-04-23 08:13:00,44.6,43.0,30.30,NNW,342,3.5,3.5,94,0.00,,,0.04,WeatherDisplay:10.37,2013-04-23 12:13:00,
2013-04-23 08:18:00,44.8,43.2,30.30,NNE,17,5.8,5.8,94,0.00,,,0.04,WeatherDisplay:10.37,2013-04-23 12:18:00,
2013-04-23 08:23:00,45.0,43.3,30.30,NNE,17,5.8,5.8,94,0.00,,,0.04,WeatherDisplay:10.37,2013-04-23 12:23:00,
2013-04-23 08:28:00,45.0,43.3,30.30,NE,35,0.0,0.0,94,0.00,,,0.04,WeatherDisplay:10.37,2013-04-23 12:28:00,
2013-04-23 08:33:00,45.0,43.3,30.30,NNE,13,4.6,4.6,94,0.00,,,0.04,WeatherDisplay:10.37,2013-04-23 12:33:00,
2013-04-23 08:38:00,45.0,43.3,30.30,North,357,3.5,3.5,94,0.00,,,0.04,WeatherDisplay:10.37,2013-04-23 12:38:00,
2013-04-23 08:43:00,45.0,43.3,30.30,NE,51,4.6,0.0,94,0.00,,,0.04,WeatherDisplay:10.37,2013-04-23 12:43:00,
2013-04-23 08:48:00,45.0,43.3,30.30,NNW,342,2.3,0.0,94,0.00,,,0.04,WeatherDisplay:10.37,2013-04-23 12:48:00,
2013-04-23 08:53:00,45.0,43.3,30.27,NNE,17,8.1,8.1,94,0.00,,,0.04,WeatherDisplay:10.37,2013-04-23 12:53:00,
2013-04-23 08:58:00,45.0,43.3,30.27,NNE,16,5.8,0.0,94,0.00,,,0.04,WeatherDisplay:10.37,2013-04-23 12:58:00,
2013-04-23 09:03:00,45.1,43.5,30.27,East,79,8.1,8.1,94,0.00,,,0.04,WeatherDisplay:10.37,2013-04-23 13:03:00,
2013-04-23 09:08:00,45.1,43.5,30.27,NNE,32,8.1,8.1,94,0.00,,,0.04,WeatherDisplay:10.37,2013-04-23 13:08:00,
2013-04-23 09:13:00,45.1,43.5,30.27,NE,48,8.1,8.1,94,0.00,,,0.04,WeatherDisplay:10.37,2013-04-23 13:13:00,
2013-04-23 09:18:00,45.3,43.7,30.27,NNE,24,3.5,3.5,94,0.00,,,0.04,WeatherDisplay:10.37,2013-04-23 13:18:00,
2013-04-23 09:23:00,45.3,43.7,30.27,NE,41,8.1,8.1,94,0.00,,,0.04,WeatherDisplay:10.37,2013-04-23 13:23:00,
2013-04-23 09:28:00,45.5,44.2,30.27,ENE,69,8.1,8.1,95,0.00,,,0.04,WeatherDisplay:10.37,2013-04-23 13:28:00,
2013-04-23 09:33:00,45.5,44.2,30.27,ENE,65,5.8,5.8,95,0.00,,,0.04,WeatherDisplay:10.37,2013-04-23 13:33:00,
2013-04-23 09:38:00,45.5,44.2,30.27,NE,44,3.5,3.6,95,0.00,,,0.04,WeatherDisplay:10.37,2013-04-23 13:38:00,
2013-04-23 09:43:00,45.9,44.5,30.27,ENE,61,8.3,8.3,95,0.00,,,0.04,WeatherDisplay:10.37,2013-04-23 13:43:00,
2013-04-23 09:48:00,46.0,44.7,30.27,North,0,8.1,8.1,95,0.00,,,0.04,WeatherDisplay:10.37,2013-04-23 13:48:00,
2013-04-23 09:53:00,46.0,44.7,30.27,NE,44,12.7,12.7,95,0.00,,,0.04,WeatherDisplay:10.37,2013-04-23 13:53:00,
2013-04-23 09:58:00,46.0,44.7,30.27,North,0,9.2,9.2,95,0.00,,,0.04,WeatherDisplay:10.37,2013-04-23 13:58:00,
2013-04-23 10:03:00,46.2,44.9,30.27,North,357,8.1,8.1,95,0.00,,,0.04,WeatherDisplay:10.37,2013-04-23 14:03:00,
2013-04-23 10:08:00,46.4,44.8,30.27,North,8,4.6,4.6,94,0.00,,,0.04,WeatherDisplay:10.37,2013-04-23 14:08:00,
2013-04-23 10:13:00,46.4,44.8,30.27,NE,40,3.5,4.0,94,0.00,,,0.04,WeatherDisplay:10.37,2013-04-23 14:13:00,
2013-04-23 10:18:00,46.6,44.7,30.27,NNE,29,5.8,5.8,93,0.00,,,0.04,WeatherDisplay:10.37,2013-04-23 14:18:00,
2013-04-23 10:23:00,46.6,44.7,30.27,East,87,4.6,4.6,93,0.00,,,0.04,WeatherDisplay:10.37,2013-04-23 14:23:00,
2013-04-23 10:28:00,46.4,44.2,30.27,ENE,62,8.1,8.1,92,0.00,,,0.04,WeatherDisplay:10.37,2013-04-23 14:28:00,
2013-04-23 10:33:00,46.6,44.1,30.27,North,0,8.1,8.1,91,0.00,,,0.04,WeatherDisplay:10.37,2013-04-23 14:33:00,
2013-04-23 10:38:00,46.6,44.1,30.27,ENE,67,9.2,9.2,91,0.00,,,0.04,WeatherDisplay:10.37,2013-04-23 14:38:00,
2013-04-23 10:43:00,46.8,44.3,30.27,NNE,31,8.1,8.1,91,0.00,,,0.04,WeatherDisplay:10.37,2013-04-23 14:43:00,
2013-04-23 10:48:00,46.8,44.0,30.27,NE,47,10.4,10.4,90,0.00,,,0.04,WeatherDisplay:10.37,2013-04-23 14:48:00,
2013-04-23 10:53:00,46.8,44.0,30.24,North,357,5.8,5.8,90,0.00,,,0.04,WeatherDisplay:10.37,2013-04-23 14:53:00,
2013-04-23 10:58:00,46.6,43.5,30.24,North,6,5.8,6.3,89,0.00,,,0.04,WeatherDisplay:10.37,2013-04-23 14:58:00,
2013-04-23 11:03:00,46.6,43.5,30.24,NE,36,5.8,5.8,89,0.00,,,0.04,WeatherDisplay:10.37,2013-04-23 15:03:00,
2013-04-23 11:08:00,46.6,43.5,30.24,NE,48,3.5,3.5,89,0.00,,,0.04,WeatherDisplay:10.37,2013-04-23 15:08:00,
2013-04-23 11:13:00,46.6,43.5,30.24,NE,37,10.4,10.4,89,0.00,,,0.04,WeatherDisplay:10.37,2013-04-23 15:13:00,
2013-04-23 11:18:00,46.8,43.7,30.24,NNE,22,6.9,6.9,89,0.00,,,0.04,WeatherDisplay:10.37,2013-04-23 15:18:00,
2013-04-23 11:23:00,46.8,43.7,30.24,North,357,9.2,9.2,89,0.00,,,0.04,WeatherDisplay:10.37,2013-04-23 15:23:00,
2013-04-23 11:28:00,46.8,43.7,30.24,NE,35,6.9,6.9,89,0.00,,,0.04,WeatherDisplay:10.37,2013-04-23 15:28:00,
2013-04-23 11:33:00,46.6,43.8,30.24,NE,42,8.1,8.1,90,0.00,,,0.04,WeatherDisplay:10.37,2013-04-23 15:33:00,
2013-04-23 11:38:00,46.6,43.8,30.24,NE,48,8.1,8.1,90,0.00,,,0.04,WeatherDisplay:10.37,2013-04-23 15:38:00,
2013-04-23 11:43:00,46.8,44.0,30.24,NE,39,5.8,0.0,90,0.00,,,0.04,WeatherDisplay:10.37,2013-04-23 15:43:00,
2013-04-23 11:49:00,46.8,44.3,30.24,NW,305,15.0,15.0,91,0.00,,,0.04,WeatherDisplay:10.37,2013-04-23 15:49:00,
2013-04-23 11:54:00,46.9,44.4,30.24,NNE,31,8.1,8.1,91,0.00,,,0.04,WeatherDisplay:10.37,2013-04-23 15:54:00,
2013-04-23 11:59:00,46.9,44.4,30.24,NNE,31,6.9,6.9,91,0.00,,,0.04,WeatherDisplay:10.37,2013-04-23 15:59:00,
2013-04-23 12:04:00,46.8,44.3,30.24,NNE,18,10.4,10.4,91,0.00,,,0.04,WeatherDisplay:10.37,2013-04-23 16:04:00,
2013-04-23 12:09:00,46.8,44.3,30.21,NNW,346,9.2,9.2,91,0.04,RA,,0.08,WeatherDisplay:10.37,2013-04-23 16:09:00,
2013-04-23 12:14:00,46.8,44.3,30.21,North,3,5.8,5.8,91,0.04,RA,,0.08,WeatherDisplay:10.37,2013-04-23 16:14:00,
2013-04-23 12:19:00,46.8,44.6,30.21,NNE,16,9.2,0.0,92,0.04,,,0.08,WeatherDisplay:10.37,2013-04-23 16:19:00,
2013-04-23 12:24:00,46.8,44.6,30.21,North,11,8.1,8.1,92,0.04,,,0.08,WeatherDisplay:10.37,2013-04-23 16:24:00,
2013-04-23 12:29:00,46.8,44.6,30.21,NNE,31,8.1,8.1,92,0.04,,,0.08,WeatherDisplay:10.37,2013-04-23 16:29:00,
2013-04-23 12:34:00,46.8,44.6,30.21,NNE,20,3.5,3.5,92,0.04,,,0.08,WeatherDisplay:10.37,2013-04-23 16:34:00,
2013-04-23 12:39:00,46.8,44.6,30.21,North,0,5.8,5.8,92,0.04,,,0.08,WeatherDisplay:10.37,2013-04-23 16:39:00,
2013-04-23 12:44:00,46.8,44.6,30.21,NNW,339,5.8,5.8,92,0.04,,,0.08,WeatherDisplay:10.37,2013-04-23 16:44:00,
2013-04-23 12:49:00,46.8,44.6,30.21,ENE,62,9.2,9.2,92,0.04,,,0.08,WeatherDisplay:10.37,2013-04-23 16:49:00,
2013-04-23 12:54:00,46.8,44.8,30.18,North,4,9.2,9.2,93,0.04,,,0.08,WeatherDisplay:10.37,2013-04-23 16:54:00,
2013-04-23 12:59:00,46.8,44.6,30.18,South,169,5.8,5.8,92,0.04,,,0.08,WeatherDisplay:10.37,2013-04-23 16:59:00,
2013-04-23 13:04:00,46.8,44.8,30.18,North,7,9.2,9.2,93,0.04,,,0.08,WeatherDisplay:10.37,2013-04-23 17:04:00,
2013-04-23 13:09:00,46.8,44.8,30.18,North,0,5.8,5.8,93,0.00,,,0.08,WeatherDisplay:10.37,2013-04-23 17:09:00,
2013-04-23 13:14:00,46.9,45.0,30.18,NNE,30,4.6,4.6,93,0.00,,,0.08,WeatherDisplay:10.37,2013-04-23 17:14:00,
2013-04-23 13:19:00,46.8,44.8,30.18,North,357,9.2,9.2,93,0.00,,,0.08,WeatherDisplay:10.37,2013-04-23 17:19:00,
2013-04-23 13:24:00,46.8,44.8,30.18,NNE,13,8.1,8.1,93,0.00,,,0.08,WeatherDisplay:10.37,2013-04-23 17:24:00,
2013-04-23 13:29:00,46.8,44.8,30.18,North,3,8.1,8.1,93,0.00,,,0.08,WeatherDisplay:10.37,2013-04-23 17:29:00,
2013-04-23 13:34:00,46.8,44.8,30.18,North,4,3.5,3.5,93,0.00,,,0.08,WeatherDisplay:10.37,2013-04-23 17:34:00,
2013-04-23 13:39:00,46.8,44.8,30.18,NNE,15,5.8,5.8,93,0.00,,,0.08,WeatherDisplay:10.37,2013-04-23 17:39:00,
2013-04-23 13:44:00,46.4,44.5,30.18,NNE,16,5.8,5.8,93,0.00,,,0.08,WeatherDisplay:10.37,2013-04-23 17:44:00,
2013-04-23 13:49:00,46.4,44.5,30.18,NNW,339,5.8,5.8,93,0.00,,,0.08,WeatherDisplay:10.37,2013-04-23 17:49:00,
2013-04-23 13:54:00,46.4,44.5,30.15,WNW,286,8.1,8.1,93,0.00,,,0.08,WeatherDisplay:10.37,2013-04-23 17:54:00,
2013-04-23 13:59:00,46.4,44.5,30.15,ENE,65,5.8,6.3,93,0.00,,,0.08,WeatherDisplay:10.37,2013-04-23 17:59:00,
2013-04-23 14:04:00,46.4,44.5,30.15,NNE,15,8.1,8.1,93,0.00,,,0.08,WeatherDisplay:10.37,2013-04-23 18:04:00,
2013-04-23 14:09:00,46.4,44.5,30.15,North,11,10.4,10.4,93,0.00,,,0.08,WeatherDisplay:10.37,2013-04-23 18:09:00,
2013-04-23 14:14:00,46.4,44.5,30.15,NE,50,9.2,9.2,93,0.04,RA,,0.12,WeatherDisplay:10.37,2013-04-23 18:14:00,
2013-04-23 14:19:00,46.4,44.5,30.15,ENE,59,5.8,5.8,93,0.04,RA,,0.12,WeatherDisplay:10.37,2013-04-23 18:19:00,
2013-04-23 14:24:00,46.4,44.5,30.15,North,10,3.5,4.5,93,0.04,,,0.12,WeatherDisplay:10.37,2013-04-23 18:24:00,
2013-04-23 14:29:00,46.4,44.8,30.15,NNE,21,9.2,9.2,94,0.04,,,0.12,WeatherDisplay:10.37,2013-04-23 18:29:00,
2013-04-23 14:34:00,46.2,44.6,30.15,NE,44,7.6,7.6,94,0.04,,,0.12,WeatherDisplay:10.37,2013-04-23 18:34:00,
2013-04-23 14:39:00,46.2,44.6,30.15,NNE,31,8.1,8.1,94,0.04,,,0.12,WeatherDisplay:10.37,2013-04-23 18:39:00,
2013-04-23 14:44:00,46.2,44.6,30.15,NNE,14,6.9,6.9,94,0.04,,,0.12,WeatherDisplay:10.37,2013-04-23 18:44:00,
2013-04-23 14:49:00,46.4,44.8,30.15,North,357,3.5,3.5,94,0.08,RA,,0.16,WeatherDisplay:10.37,2013-04-23 18:49:00,
2013-04-23 14:54:00,46.2,44.9,30.12,NE,55,4.6,4.6,95,0.08,RA,,0.16,WeatherDisplay:10.37,2013-04-23 18:54:00,
2013-04-23 14:59:00,46.2,44.9,30.12,WNW,296,5.8,5.8,95,0.08,,,0.16,WeatherDisplay:10.37,2013-04-23 18:59:00,
2013-04-23 15:04:00,46.2,44.9,30.12,East,100,9.2,9.2,95,0.08,,,0.16,WeatherDisplay:10.37,2013-04-23 19:04:00,
2013-04-23 15:09:00,46.2,44.9,30.12,North,0,8.1,8.1,95,0.08,,,0.16,WeatherDisplay:10.37,2013-04-23 19:09:00,
2013-04-23 15:14:00,46.2,44.9,30.12,NNE,33,6.9,6.9,95,0.04,,,0.16,WeatherDisplay:10.37,2013-04-23 19:14:00,
2013-04-23 15:19:00,46.0,44.7,30.12,NNE,24,5.8,5.8,95,0.04,,,0.16,WeatherDisplay:10.37,2013-04-23 19:19:00,
2013-04-23 15:24:00,46.0,44.7,30.12,North,0,8.1,8.1,95,0.04,,,0.16,WeatherDisplay:10.37,2013-04-23 19:24:00,
2013-04-23 15:29:00,46.0,45.0,30.12,North,0,5.8,5.8,96,0.04,,,0.16,WeatherDisplay:10.37,2013-04-23 19:29:00,
2013-04-23 15:34:00,46.0,45.0,30.12,NNE,20,5.8,5.8,96,0.04,,,0.16,WeatherDisplay:10.37,2013-04-23 19:34:00,
2013-04-23 15:39:00,46.0,45.0,30.09,North,4,8.1,8.1,96,0.04,,,0.16,WeatherDisplay:10.37,2013-04-23 19:39:00,
2013-04-23 15:44:00,46.0,45.0,30.09,NE,55,5.8,5.8,96,0.04,,,0.16,WeatherDisplay:10.37,2013-04-23 19:44:00,
2013-04-23 15:49:00,46.0,45.0,30.09,NE,41,5.8,5.8,96,0.00,,,0.16,WeatherDisplay:10.37,2013-04-23 19:49:00,
2013-04-23 15:54:00,46.0,45.0,30.09,East,92,8.1,0.0,96,0.00,,,0.20,WeatherDisplay:10.37,2013-04-23 19:54:00,
2013-04-23 15:59:00,46.0,45.0,30.09,NNE,13,8.1,0.0,96,0.04,RA,,0.20,WeatherDisplay:10.37,2013-04-23 19:59:00,
2013-04-23 16:04:00,45.9,44.8,30.09,North,0,5.8,5.8,96,0.04,RA,,0.20,WeatherDisplay:10.37,2013-04-23 20:04:00,
2013-04-23 16:09:00,45.9,44.8,30.09,North,353,9.2,9.2,96,0.04,,,0.20,WeatherDisplay:10.37,2013-04-23 20:09:00,
2013-04-23 16:14:00,45.9,44.8,30.09,North,357,9.2,9.2,96,0.08,RA,,0.24,WeatherDisplay:10.37,2013-04-23 20:14:00,
2013-04-23 16:19:00,45.9,44.8,30.09,NNE,13,5.8,5.8,96,0.08,RA,,0.24,WeatherDisplay:10.37,2013-04-23 20:19:00,
2013-04-23 16:24:00,45.9,45.1,30.09,NNE,31,9.2,9.2,97,0.08,,,0.24,WeatherDisplay:10.37,2013-04-23 20:24:00,
2013-04-23 16:29:00,45.9,45.1,30.09,NNW,337,3.5,0.0,97,0.08,,,0.24,WeatherDisplay:10.37,2013-04-23 20:29:00,
2013-04-23 16:34:00,45.9,45.1,30.09,North,349,6.3,6.3,97,0.08,,,0.24,WeatherDisplay:10.37,2013-04-23 20:34:00,
2013-04-23 16:39:00,45.9,45.1,30.06,NE,49,9.2,9.2,97,0.08,,,0.24,WeatherDisplay:10.37,2013-04-23 20:39:00,
2013-04-23 16:44:00,45.9,45.1,30.06,NW,325,8.1,8.1,97,0.08,,,0.24,WeatherDisplay:10.37,2013-04-23 20:44:00,
2013-04-23 16:49:00,45.9,45.1,30.06,NW,321,5.8,0.0,97,0.08,,,0.24,WeatherDisplay:10.37,2013-04-23 20:49:00,
2013-04-23 16:54:00,45.9,45.1,30.06,NW,313,5.8,5.8,97,0.12,RA,,0.28,WeatherDisplay:10.37,2013-04-23 20:54:00,
2013-04-23 16:59:00,45.9,45.1,30.06,North,0,10.4,10.4,97,0.08,RA,,0.28,WeatherDisplay:10.37,2013-04-23 20:59:00,
2013-04-23 17:04:00,45.7,44.9,30.06,North,5,3.5,3.6,97,0.08,,,0.28,WeatherDisplay:10.37,2013-04-23 21:04:00,
2013-04-23 17:09:00,45.5,44.7,30.06,NNW,327,8.1,8.1,97,0.08,,,0.28,WeatherDisplay:10.37,2013-04-23 21:09:00,
2013-04-23 17:14:00,45.5,44.7,30.06,NNW,329,5.8,5.8,97,0.08,RA,,0.31,WeatherDisplay:10.37,2013-04-23 21:14:00,
2013-04-23 17:19:00,45.5,44.7,30.06,North,0,9.2,9.2,97,0.08,RA,,0.31,WeatherDisplay:10.37,2013-04-23 21:19:00,
2013-04-23 17:24:00,45.5,44.7,30.06,North,357,8.1,8.1,97,0.08,,,0.31,WeatherDisplay:10.37,2013-04-23 21:24:00,
2013-04-23 17:29:00,45.5,45.0,30.06,NNW,330,10.1,10.1,98,0.08,,,0.31,WeatherDisplay:10.37,2013-04-23 21:29:00,
2013-04-23 17:34:00,45.5,45.0,30.06,North,9,3.5,3.5,98,0.08,,,0.31,WeatherDisplay:10.37,2013-04-23 21:34:00,
2013-04-23 17:39:00,45.5,45.0,30.03,NNE,18,11.5,11.5,98,0.08,,,0.31,WeatherDisplay:10.37,2013-04-23 21:39:00,
2013-04-23 17:44:00,45.5,45.0,30.03,NNW,329,6.3,6.3,98,0.08,,,0.31,WeatherDisplay:10.37,2013-04-23 21:44:00,
2013-04-23 17:50:00,45.5,45.0,30.03,ENE,69,9.2,9.2,98,0.08,,,0.31,WeatherDisplay:10.37,2013-04-23 21:50:00,
2013-04-23 17:55:00,45.5,45.0,30.03,NNE,23,5.8,5.8,98,0.04,,,0.31,WeatherDisplay:10.37,2013-04-23 21:55:00,
2013-04-23 18:00:00,45.5,45.0,30.03,North,9,5.8,5.8,98,0.04,,,0.31,WeatherDisplay:10.37,2013-04-23 22:00:00,
2013-04-23 18:05:00,45.3,44.8,30.03,North,353,5.8,5.8,98,0.04,,,0.31,WeatherDisplay:10.37,2013-04-23 22:05:00,
2013-04-23 18:10:00,45.3,44.8,30.03,NNE,19,3.5,4.0,98,0.08,RA,,0.35,WeatherDisplay:10.37,2013-04-23 22:10:00,
2013-04-23 18:15:00,45.3,44.8,30.03,North,357,5.8,5.8,98,0.04,RA,,0.35,WeatherDisplay:10.37,2013-04-23 22:15:00,
2013-04-23 18:20:00,45.3,44.8,30.03,North,353,11.5,11.5,98,0.04,,,0.35,WeatherDisplay:10.37,2013-04-23 22:20:00,
2013-04-23 18:25:00,45.3,44.8,30.03,NE,56,4.6,4.6,98,0.04,,,0.35,WeatherDisplay:10.37,2013-04-23 22:25:00,
2013-04-23 18:30:00,45.3,44.8,30.03,North,9,6.3,6.3,98,0.08,RA,,0.39,WeatherDisplay:10.37,2013-04-23 22:30:00,
2013-04-23 18:35:00,45.1,44.6,30.03,North,353,6.9,6.9,98,0.08,RA,,0.39,WeatherDisplay:10.37,2013-04-23 22:35:00,
2013-04-23 18:40:00,45.1,44.6,30.03,North,353,5.8,5.8,98,0.08,,,0.39,WeatherDisplay:10.37,2013-04-23 22:40:00,
2013-04-23 18:45:00,45.1,44.6,30.03,North,8,5.4,5.4,98,0.08,,,0.39,WeatherDisplay:10.37,2013-04-23 22:45:00,
2013-04-23 18:50:00,45.1,44.6,30.03,North,11,5.8,5.8,98,0.08,,,0.39,WeatherDisplay:10.37,2013-04-23 22:50:00,
2013-04-23 18:55:00,45.1,44.6,30.03,NNW,341,5.4,5.4,98,0.08,,,0.39,WeatherDisplay:10.37,2013-04-23 22:55:00,
2013-04-23 19:00:00,45.0,44.4,30.03,NE,51,3.5,3.5,98,0.08,,,0.39,WeatherDisplay:10.37,2013-04-23 23:00:00,
2013-04-23 19:05:00,45.0,44.4,30.03,North,4,5.8,5.8,98,0.08,,,0.39,WeatherDisplay:10.37,2013-04-23 23:05:00,
2013-04-23 19:10:00,45.0,44.4,30.03,NNW,331,5.8,5.8,98,0.04,,,0.39,WeatherDisplay:10.37,2013-04-23 23:10:00,
2013-04-23 19:15:00,45.0,44.4,30.03,NNE,12,8.1,8.1,98,0.08,RA,,0.43,WeatherDisplay:10.37,2013-04-23 23:15:00,
2013-04-23 19:20:00,44.8,44.3,30.03,NE,47,3.5,4.0,98,0.08,RA,,0.43,WeatherDisplay:10.37,2013-04-23 23:20:00,
2013-04-23 19:25:00,44.8,44.3,30.00,NNW,331,8.1,8.1,98,0.08,,,0.43,WeatherDisplay:10.37,2013-04-23 23:25:00,
2013-04-23 19:30:00,44.8,44.3,30.00,North,349,6.9,6.9,98,0.04,,,0.43,WeatherDisplay:10.37,2013-04-23 23:30:00,
2013-04-23 19:35:00,44.8,44.3,30.00,NW,307,8.1,8.1,98,0.04,,,0.43,WeatherDisplay:10.37,2013-04-23 23:35:00,
2013-04-23 19:40:00,44.8,44.3,30.00,NNE,16,5.8,5.8,98,0.08,RA,,0.47,WeatherDisplay:10.37,2013-04-23 23:40:00,
2013-04-23 19:45:00,44.6,44.1,30.00,NNE,18,5.8,5.8,98,0.08,RA,,0.47,WeatherDisplay:10.37,2013-04-23 23:45:00,
2013-04-23 19:50:00,44.8,44.3,30.00,North,357,4.0,4.0,98,0.08,,,0.47,WeatherDisplay:10.37,2013-04-23 23:50:00,
2013-04-23 19:55:00,44.6,44.1,30.00,North,357,4.6,4.6,98,0.08,,,0.47,WeatherDisplay:10.37,2013-04-23 23:55:00,
2013-04-23 20:00:00,44.6,44.1,30.00,NNE,12,5.8,5.8,98,0.08,,,0.47,WeatherDisplay:10.37,2013-04-24 00:00:00,
2013-04-23 20:05:00,44.8,44.3,30.00,North,357,5.8,5.8,98,0.08,,,0.47,WeatherDisplay:10.37,2013-04-24 00:05:00,
2013-04-23 20:10:00,44.8,44.3,30.00,North,353,5.8,5.8,98,0.08,,,0.47,WeatherDisplay:10.37,2013-04-24 00:10:00,
2013-04-23 20:15:00,44.8,44.3,30.00,North,2,5.8,5.8,98,0.04,,,0.47,WeatherDisplay:10.37,2013-04-24 00:15:00,
2013-04-23 20:20:00,44.8,44.3,30.00,NNE,14,9.2,9.2,98,0.04,,,0.47,WeatherDisplay:10.37,2013-04-24 00:20:00,
2013-04-23 20:25:00,44.8,44.3,29.97,North,0,9.2,9.2,98,0.04,,,0.47,WeatherDisplay:10.37,2013-04-24 00:25:00,
2013-04-23 20:30:00,44.8,44.3,29.97,NNE,25,8.1,8.1,98,0.04,,,0.47,WeatherDisplay:10.37,2013-04-24 00:30:00,
2013-04-23 20:35:00,44.8,44.3,29.97,NNW,332,9.2,9.2,98,0.04,,,0.47,WeatherDisplay:10.37,2013-04-24 00:35:00,
2013-04-23 20:40:00,44.8,44.3,29.97,NW,304,8.1,8.1,98,0.00,,,0.47,WeatherDisplay:10.37,2013-04-24 00:40:00,
2013-04-23 20:45:00,44.8,44.3,29.97,NE,38,5.8,5.8,98,0.00,,,0.47,WeatherDisplay:10.37,2013-04-24 00:45:00,
2013-04-23 20:50:00,44.8,44.3,29.97,NNW,341,10.4,10.4,98,0.04,RA,,0.51,WeatherDisplay:10.37,2013-04-24 00:50:00,
2013-04-23 20:55:00,44.8,44.3,29.97,NNE,18,8.1,8.1,98,0.04,RA,,0.51,WeatherDisplay:10.37,2013-04-24 00:55:00,
2013-04-23 21:00:00,44.8,44.3,29.97,NNE,23,5.8,5.8,98,0.04,,,0.51,WeatherDisplay:10.37,2013-04-24 01:00:00,
2013-04-23 21:05:00,44.8,44.3,29.97,NW,309,10.4,10.4,98,0.04,,,0.51,WeatherDisplay:10.37,2013-04-24 01:05:00,
2013-04-23 21:10:00,44.8,44.3,29.97,NNE,17,8.1,8.1,98,0.04,,,0.51,WeatherDisplay:10.37,2013-04-24 01:10:00,
2013-04-23 21:15:00,44.8,44.3,29.97,North,357,5.8,5.8,98,0.04,,,0.51,WeatherDisplay:10.37,2013-04-24 01:15:00,
2013-04-23 21:20:00,44.8,44.3,29.97,WNW,301,6.9,6.9,98,0.08,RA,,0.55,WeatherDisplay:10.37,2013-04-24 01:20:00,
2013-04-23 21:25:00,45.0,44.4,29.97,NNW,339,11.5,11.5,98,0.08,RA,,0.55,WeatherDisplay:10.37,2013-04-24 01:25:00,
2013-04-23 21:30:00,44.8,44.3,29.97,NNW,327,5.8,5.8,98,0.08,,,0.55,WeatherDisplay:10.37,2013-04-24 01:30:00,
2013-04-23 21:35:00,44.8,44.3,29.97,NNE,32,9.2,9.2,98,0.08,,,0.55,WeatherDisplay:10.37,2013-04-24 01:35:00,
2013-04-23 21:40:00,44.8,44.3,29.97,WNW,291,6.3,6.3,98,0.08,,,0.55,WeatherDisplay:10.37,2013-04-24 01:40:00,
2013-04-23 21:45:00,44.8,44.3,29.97,NNW,329,5.8,5.8,98,0.08,,,0.55,WeatherDisplay:10.37,2013-04-24 01:45:00,
2013-04-23 21:50:00,44.8,44.3,29.97,NNE,15,8.1,8.1,98,0.04,,,0.55,WeatherDisplay:10.37,2013-04-24 01:50:00,
2013-04-23 21:55:00,44.8,44.3,29.94,NE,35,10.4,10.4,98,0.08,RA,,0.59,WeatherDisplay:10.37,2013-04-24 01:55:00,
2013-04-23 22:00:00,44.8,44.3,29.94,NNE,12,8.1,8.1,98,0.08,RA,,0.59,WeatherDisplay:10.37,2013-04-24 02:00:00,
2013-04-23 22:05:00,44.8,44.3,29.94,WNW,300,8.1,8.1,98,0.08,,,0.59,WeatherDisplay:10.37,2013-04-24 02:05:00,
2013-04-23 22:10:00,44.6,44.1,29.94,NE,35,8.1,8.1,98,0.12,RA,,0.63,WeatherDisplay:10.37,2013-04-24 02:10:00,
2013-04-23 22:16:00,44.8,44.3,29.94,NNE,31,9.2,9.2,98,0.12,RA,,0.63,WeatherDisplay:10.37,2013-04-24 02:16:00,
2013-04-23 22:21:00,44.8,44.3,29.94,West,277,11.5,11.5,98,0.08,,,0.63,WeatherDisplay:10.37,2013-04-24 02:21:00,
2013-04-23 22:26:00,44.8,44.3,29.94,NNE,13,9.2,9.2,98,0.08,,,0.63,WeatherDisplay:10.37,2013-04-24 02:26:00,
2013-04-23 22:32:00,44.8,44.3,29.94,WNW,282,10.4,10.4,98,0.08,,,0.63,WeatherDisplay:10.37,2013-04-24 02:32:00,
2013-04-23 22:37:00,44.6,44.1,29.91,North,0,5.8,5.8,98,0.16,RA,,0.71,WeatherDisplay:10.37,2013-04-24 02:37:00,
2013-04-23 22:43:00,44.6,44.1,29.91,NNW,339,4.6,4.6,98,0.16,RA,,0.71,WeatherDisplay:10.37,2013-04-24 02:43:00,
2013-04-23 22:48:00,44.6,44.1,29.91,WNW,294,10.4,10.4,98,0.20,RA,,0.75,WeatherDisplay:10.37,2013-04-24 02:48:00,
2013-04-23 22:53:00,44.6,44.1,29.91,North,5,3.5,3.6,98,0.16,RA,,0.75,WeatherDisplay:10.37,2013-04-24 02:53:00,
2013-04-23 22:58:00,44.6,44.1,29.91,NNW,329,5.8,5.8,98,0.16,,,0.75,WeatherDisplay:10.37,2013-04-24 02:58:00,
2013-04-23 23:03:00,44.6,44.1,29.91,NW,309,9.2,9.2,98,0.20,RA,,0.79,WeatherDisplay:10.37,2013-04-24 03:03:00,
2013-04-23 23:08:00,44.6,44.1,29.88,North,357,5.8,5.8,98,0.20,RA,,0.79,WeatherDisplay:10.37,2013-04-24 03:08:00,
2013-04-23 23:14:00,44.6,44.1,29.88,NE,44,9.2,9.2,98,0.20,RA,,0.83,WeatherDisplay:10.37,2013-04-24 03:14:00,
2013-04-23 23:19:00,44.6,44.1,29.88,NNE,28,5.8,5.8,98,0.20,RA,,0.83,WeatherDisplay:10.37,2013-04-24 03:19:00,
2013-04-23 23:24:00,44.6,44.1,29.88,NNE,31,6.9,6.9,98,0.24,RA,,0.87,WeatherDisplay:10.37,2013-04-24 03:24:00,
2013-04-23 23:29:00,44.4,43.9,29.88,North,0,15.0,15.0,98,0.24,RA,,0.87,WeatherDisplay:10.37,2013-04-24 03:29:00,
2013-04-23 23:34:00,44.4,43.9,29.88,NW,304,9.2,9.2,98,0.20,RA,,0.91,WeatherDisplay:10.37,2013-04-24 03:34:00,
2013-04-23 23:39:00,44.4,43.9,29.88,North,349,9.2,9.2,98,0.20,RA,,0.91,WeatherDisplay:10.37,2013-04-24 03:39:00,
2013-04-23 23:45:00,44.4,43.9,29.88,North,0,5.8,5.8,98,0.20,,,0.91,WeatherDisplay:10.37,2013-04-24 03:45:00,
2013-04-23 23:50:00,44.4,43.9,29.88,NNE,18,5.8,5.8,98,0.20,RA,,0.94,WeatherDisplay:10.37,2013-04-24 03:50:00,
2013-04-23 23:56:00,44.4,43.9,29.88,NNW,333,5.8,5.8,98,0.24,RA,,0.98,WeatherDisplay:10.37,2013-04-24 03:56:00,